sensor_id;sensor_type;location;lat;lon;timestamp;P1;durP1;ratioP1;P2;durP2;ratioP2
46339;SDS011;47273;49.274;8.708;2022-12-29T04:32:14;4.45;;;1.80;;
46339;SDS011;47273;49.274;8.708;2022-12-29T04:34:40;3.10;;;1.80;;
46339;SDS011;47273;49.274;8.708;2022-12-29T04:37:06;5.03;;;1.90;;
46339;SDS011;47273;49.274;8.708;2022-12-29T04:39:31;2.83;;;1.48;;
46339;SDS011;47273;49.274;8.708;2022-12-29T04:41:58;3.10;;;1.73;;
46339;SDS011;47273;49.274;8.708;2022-12-29T04:44:24;3.03;;;1.70;;
46339;SDS011;47273;49.274;8.708;2022-12-29T04:46:50;6.30;;;1.70;;
46339;SDS011;47273;49.274;8.708;2022-12-29T04:49:15;3.17;;;1.75;;
46339;SDS011;47273;49.274;8.708;2022-12-29T04:52:06;4.93;;;1.90;;
46339;SDS011;47273;49.274;8.708;2022-12-29T04:54:33;5.30;;;2.05;;
46339;SDS011;47273;49.274;8.708;2022-12-29T04:56:59;6.43;;;2.20;;
46339;SDS011;47273;49.274;8.708;2022-12-29T04:59:27;5.07;;;2.10;;
46339;SDS011;47273;49.274;8.708;2022-12-29T05:04:45;3.47;;;1.60;;
46339;SDS011;47273;49.274;8.708;2022-12-29T05:07:11;3.75;;;2.00;;
46339;SDS011;47273;49.274;8.708;2022-12-29T05:09:37;6.28;;;2.28;;
46339;SDS011;47273;49.274;8.708;2022-12-29T05:12:03;8.95;;;2.50;;
46339;SDS011;47273;49.274;8.708;2022-12-29T05:14:29;3.60;;;2.10;;
46339;SDS011;47273;49.274;8.708;2022-12-29T05:16:54;3.88;;;2.10;;
46339;SDS011;47273;49.274;8.708;2022-12-29T05:19:20;4.60;;;2.03;;
46339;SDS011;47273;49.274;8.708;2022-12-29T05:21:46;4.85;;;1.90;;
46339;SDS011;47273;49.274;8.708;2022-12-29T05:24:11;3.30;;;1.67;;
46339;SDS011;47273;49.274;8.708;2022-12-29T05:26:37;4.53;;;1.75;;
46339;SDS011;47273;49.274;8.708;2022-12-29T05:29:03;5.32;;;2.30;;
46339;SDS011;47273;49.274;8.708;2022-12-29T05:31:28;6.38;;;2.53;;
46339;SDS011;47273;49.274;8.708;2022-12-29T05:33:54;4.40;;;2.00;;
46339;SDS011;47273;49.274;8.708;2022-12-29T05:36:20;6.50;;;2.03;;
46339;SDS011;47273;49.274;8.708;2022-12-29T05:38:45;5.55;;;2.10;;
46339;SDS011;47273;49.274;8.708;2022-12-29T05:41:11;2.67;;;1.60;;
46339;SDS011;47273;49.274;8.708;2022-12-29T05:43:37;4.25;;;2.13;;
46339;SDS011;47273;49.274;8.708;2022-12-29T05:46:03;3.85;;;1.83;;
46339;SDS011;47273;49.274;8.708;2022-12-29T05:48:28;5.82;;;2.10;;
46339;SDS011;47273;49.274;8.708;2022-12-29T05:50:54;5.53;;;2.35;;
46339;SDS011;47273;49.274;8.708;2022-12-29T05:53:20;5.72;;;2.40;;
46339;SDS011;47273;49.274;8.708;2022-12-29T05:55:46;5.45;;;2.13;;
46339;SDS011;47273;49.274;8.708;2022-12-29T05:58:13;4.95;;;2.25;;
46339;SDS011;47273;49.274;8.708;2022-12-29T06:00:39;4.43;;;2.13;;
46339;SDS011;47273;49.274;8.708;2022-12-29T06:03:05;5.80;;;2.53;;
46339;SDS011;47273;49.274;8.708;2022-12-29T06:05:30;4.55;;;2.50;;
46339;SDS011;47273;49.274;8.708;2022-12-29T06:07:56;4.97;;;2.72;;
46339;SDS011;47273;49.274;8.708;2022-12-29T06:10:22;4.85;;;1.85;;
46339;SDS011;47273;49.274;8.708;2022-12-29T06:12:47;5.25;;;1.98;;
46339;SDS011;47273;49.274;8.708;2022-12-29T06:15:13;4.72;;;2.25;;
46339;SDS011;47273;49.274;8.708;2022-12-29T06:17:39;6.45;;;3.33;;
46339;SDS011;47273;49.274;8.708;2022-12-29T06:20:05;5.35;;;2.30;;
46339;SDS011;47273;49.274;8.708;2022-12-29T06:22:32;5.57;;;2.63;;
46339;SDS011;47273;49.274;8.708;2022-12-29T06:24:58;4.45;;;2.05;;
46339;SDS011;47273;49.274;8.708;2022-12-29T06:27:23;8.88;;;2.53;;
46339;SDS011;47273;49.274;8.708;2022-12-29T06:29:52;5.97;;;2.33;;
46339;SDS011;47273;49.274;8.708;2022-12-29T06:32:17;6.70;;;2.60;;
46339;SDS011;47273;49.274;8.708;2022-12-29T06:34:43;5.15;;;2.60;;
46339;SDS011;47273;49.274;8.708;2022-12-29T06:37:09;5.72;;;2.25;;
46339;SDS011;47273;49.274;8.708;2022-12-29T06:39:35;5.25;;;2.75;;
46339;SDS011;47273;49.274;8.708;2022-12-29T06:42:01;3.28;;;1.85;;
46339;SDS011;47273;49.274;8.708;2022-12-29T06:44:26;4.97;;;2.08;;
46339;SDS011;47273;49.274;8.708;2022-12-29T06:46:52;3.95;;;2.05;;
46339;SDS011;47273;49.274;8.708;2022-12-29T06:49:18;7.95;;;2.70;;
46339;SDS011;47273;49.274;8.708;2022-12-29T06:51:43;6.60;;;2.63;;
46339;SDS011;47273;49.274;8.708;2022-12-29T06:54:09;5.57;;;2.30;;
46339;SDS011;47273;49.274;8.708;2022-12-29T06:56:35;4.93;;;2.35;;
46339;SDS011;47273;49.274;8.708;2022-12-29T06:59:00;4.20;;;2.33;;
46339;SDS011;47273;49.274;8.708;2022-12-29T07:01:26;5.72;;;2.08;;
46339;SDS011;47273;49.274;8.708;2022-12-29T07:03:52;5.70;;;2.50;;
46339;SDS011;47273;49.274;8.708;2022-12-29T07:06:18;5.57;;;2.10;;
46339;SDS011;47273;49.274;8.708;2022-12-29T07:08:43;3.78;;;2.28;;
46339;SDS011;47273;49.274;8.708;2022-12-29T07:11:11;5.68;;;2.58;;
46339;SDS011;47273;49.274;8.708;2022-12-29T07:13:37;6.10;;;2.55;;
46339;SDS011;47273;49.274;8.708;2022-12-29T07:16:06;7.82;;;2.63;;
46339;SDS011;47273;49.274;8.708;2022-12-29T07:18:33;5.15;;;2.58;;
46339;SDS011;47273;49.274;8.708;2022-12-29T07:21:01;5.07;;;2.30;;
46339;SDS011;47273;49.274;8.708;2022-12-29T07:23:28;3.80;;;2.22;;
46339;SDS011;47273;49.274;8.708;2022-12-29T07:26:04;7.60;;;2.83;;
46339;SDS011;47273;49.274;8.708;2022-12-29T07:28:32;7.80;;;2.90;;
46339;SDS011;47273;49.274;8.708;2022-12-29T07:30:58;4.50;;;2.47;;
46339;SDS011;47273;49.274;8.708;2022-12-29T07:33:24;4.47;;;2.50;;
46339;SDS011;47273;49.274;8.708;2022-12-29T07:35:50;6.80;;;2.47;;
46339;SDS011;47273;49.274;8.708;2022-12-29T07:38:16;7.40;;;2.50;;
46339;SDS011;47273;49.274;8.708;2022-12-29T07:40:42;6.20;;;2.70;;
46339;SDS011;47273;49.274;8.708;2022-12-29T07:43:08;4.15;;;2.78;;
46339;SDS011;47273;49.274;8.708;2022-12-29T07:45:34;3.83;;;2.33;;
46339;SDS011;47273;49.274;8.708;2022-12-29T07:47:59;6.28;;;2.40;;
46339;SDS011;47273;49.274;8.708;2022-12-29T07:50:27;7.28;;;3.30;;
46339;SDS011;47273;49.274;8.708;2022-12-29T07:52:53;5.22;;;2.30;;
46339;SDS011;47273;49.274;8.708;2022-12-29T07:55:19;6.53;;;2.55;;
46339;SDS011;47273;49.274;8.708;2022-12-29T07:57:44;12.77;;;3.13;;
46339;SDS011;47273;49.274;8.708;2022-12-29T08:00:10;5.63;;;3.15;;
46339;SDS011;47273;49.274;8.708;2022-12-29T08:02:36;8.63;;;2.75;;
46339;SDS011;47273;49.274;8.708;2022-12-29T08:05:02;4.88;;;2.75;;
46339;SDS011;47273;49.274;8.708;2022-12-29T08:07:27;5.68;;;2.70;;
46339;SDS011;47273;49.274;8.708;2022-12-29T08:09:53;3.97;;;2.20;;
46339;SDS011;47273;49.274;8.708;2022-12-29T08:12:21;5.38;;;2.63;;
46339;SDS011;47273;49.274;8.708;2022-12-29T08:14:47;9.98;;;2.78;;
46339;SDS011;47273;49.274;8.708;2022-12-29T08:17:12;6.93;;;2.38;;
46339;SDS011;47273;49.274;8.708;2022-12-29T08:19:40;4.35;;;2.20;;
46339;SDS011;47273;49.274;8.708;2022-12-29T08:22:08;7.15;;;2.38;;
46339;SDS011;47273;49.274;8.708;2022-12-29T08:24:33;6.93;;;2.58;;
46339;SDS011;47273;49.274;8.708;2022-12-29T08:27:02;7.03;;;2.63;;
46339;SDS011;47273;49.274;8.708;2022-12-29T08:29:27;6.93;;;2.33;;
46339;SDS011;47273;49.274;8.708;2022-12-29T08:31:53;6.25;;;2.70;;
46339;SDS011;47273;49.274;8.708;2022-12-29T08:34:19;4.10;;;2.22;;
46339;SDS011;47273;49.274;8.708;2022-12-29T08:36:44;16.02;;;3.28;;
46339;SDS011;47273;49.274;8.708;2022-12-29T08:39:10;6.28;;;2.95;;
46339;SDS011;47273;49.274;8.708;2022-12-29T08:41:38;6.57;;;2.42;;
46339;SDS011;47273;49.274;8.708;2022-12-29T08:44:07;6.22;;;2.47;;
46339;SDS011;47273;49.274;8.708;2022-12-29T08:46:33;7.30;;;2.55;;
46339;SDS011;47273;49.274;8.708;2022-12-29T08:48:58;6.65;;;2.70;;
46339;SDS011;47273;49.274;8.708;2022-12-29T08:51:24;7.70;;;2.90;;
46339;SDS011;47273;49.274;8.708;2022-12-29T08:53:50;5.20;;;2.80;;
46339;SDS011;47273;49.274;8.708;2022-12-29T08:56:18;4.68;;;2.33;;
46339;SDS011;47273;49.274;8.708;2022-12-29T08:58:44;8.00;;;2.40;;
46339;SDS011;47273;49.274;8.708;2022-12-29T09:01:10;4.57;;;2.47;;
46339;SDS011;47273;49.274;8.708;2022-12-29T09:03:35;8.10;;;4.18;;
46339;SDS011;47273;49.274;8.708;2022-12-29T09:06:01;6.55;;;3.05;;
46339;SDS011;47273;49.274;8.708;2022-12-29T09:08:27;9.93;;;2.60;;
46339;SDS011;47273;49.274;8.708;2022-12-29T09:10:53;6.05;;;2.58;;
46339;SDS011;47273;49.274;8.708;2022-12-29T09:13:18;6.03;;;2.72;;
46339;SDS011;47273;49.274;8.708;2022-12-29T09:15:44;4.95;;;2.38;;
46339;SDS011;47273;49.274;8.708;2022-12-29T09:18:10;8.05;;;2.60;;
46339;SDS011;47273;49.274;8.708;2022-12-29T09:20:39;7.00;;;2.45;;
46339;SDS011;47273;49.274;8.708;2022-12-29T09:23:05;5.05;;;2.20;;
46339;SDS011;47273;49.274;8.708;2022-12-29T09:25:31;6.15;;;3.17;;
46339;SDS011;47273;49.274;8.708;2022-12-29T09:27:57;7.03;;;3.20;;
46339;SDS011;47273;49.274;8.708;2022-12-29T09:30:22;5.57;;;2.55;;
46339;SDS011;47273;49.274;8.708;2022-12-29T09:32:51;8.48;;;3.17;;
46339;SDS011;47273;49.274;8.708;2022-12-29T09:35:17;5.18;;;2.88;;
46339;SDS011;47273;49.274;8.708;2022-12-29T09:37:45;5.50;;;2.80;;
46339;SDS011;47273;49.274;8.708;2022-12-29T09:40:25;5.93;;;2.55;;
46339;SDS011;47273;49.274;8.708;2022-12-29T09:48:27;5.53;;;2.53;;
46339;SDS011;47273;49.274;8.708;2022-12-29T09:50:58;6.28;;;2.47;;
46339;SDS011;47273;49.274;8.708;2022-12-29T09:53:29;4.88;;;2.35;;
46339;SDS011;47273;49.274;8.708;2022-12-29T09:56:02;6.00;;;2.42;;
46339;SDS011;47273;49.274;8.708;2022-12-29T09:59:24;8.02;;;2.70;;
46339;SDS011;47273;49.274;8.708;2022-12-29T10:04:29;3.47;;;2.20;;
46339;SDS011;47273;49.274;8.708;2022-12-29T10:07:09;4.45;;;2.25;;
46339;SDS011;47273;49.274;8.708;2022-12-29T10:09:49;5.35;;;2.92;;
46339;SDS011;47273;49.274;8.708;2022-12-29T10:18:06;6.43;;;2.58;;
46339;SDS011;47273;49.274;8.708;2022-12-29T10:23:53;7.68;;;3.08;;
46339;SDS011;47273;49.274;8.708;2022-12-29T10:26:31;6.47;;;2.35;;
46339;SDS011;47273;49.274;8.708;2022-12-29T10:29:04;5.78;;;2.90;;
46339;SDS011;47273;49.274;8.708;2022-12-29T10:34:29;7.32;;;3.63;;
46339;SDS011;47273;49.274;8.708;2022-12-29T10:37:03;5.47;;;2.70;;
46339;SDS011;47273;49.274;8.708;2022-12-29T10:39:43;7.20;;;2.90;;
46339;SDS011;47273;49.274;8.708;2022-12-29T10:44:53;6.43;;;2.60;;
46339;SDS011;47273;49.274;8.708;2022-12-29T10:47:21;7.57;;;2.58;;
46339;SDS011;47273;49.274;8.708;2022-12-29T10:49:51;6.97;;;2.35;;
46339;SDS011;47273;49.274;8.708;2022-12-29T10:52:18;6.13;;;2.25;;
46339;SDS011;47273;49.274;8.708;2022-12-29T10:54:50;4.70;;;2.25;;
46339;SDS011;47273;49.274;8.708;2022-12-29T10:57:25;6.05;;;2.08;;
46339;SDS011;47273;49.274;8.708;2022-12-29T11:00:01;3.75;;;2.20;;
46339;SDS011;47273;49.274;8.708;2022-12-29T11:08:11;2.90;;;2.00;;
46339;SDS011;47273;49.274;8.708;2022-12-29T11:10:42;2.85;;;2.13;;
46339;SDS011;47273;49.274;8.708;2022-12-29T11:13:16;5.05;;;2.75;;
46339;SDS011;47273;49.274;8.708;2022-12-29T11:16:05;4.10;;;2.08;;
46339;SDS011;47273;49.274;8.708;2022-12-29T11:20:59;3.90;;;2.08;;
46339;SDS011;47273;49.274;8.708;2022-12-29T11:26:06;5.20;;;2.45;;
46339;SDS011;47273;49.274;8.708;2022-12-29T11:28:39;4.72;;;2.33;;
46339;SDS011;47273;49.274;8.708;2022-12-29T11:31:07;4.55;;;2.38;;
46339;SDS011;47273;49.274;8.708;2022-12-29T11:33:34;6.80;;;2.65;;
46339;SDS011;47273;49.274;8.708;2022-12-29T11:36:13;6.50;;;2.08;;
46339;SDS011;47273;49.274;8.708;2022-12-29T11:38:48;4.80;;;2.08;;
46339;SDS011;47273;49.274;8.708;2022-12-29T11:41:25;8.00;;;2.20;;
46339;SDS011;47273;49.274;8.708;2022-12-29T11:43:58;5.47;;;2.67;;
46339;SDS011;47273;49.274;8.708;2022-12-29T11:46:36;5.03;;;2.30;;
46339;SDS011;47273;49.274;8.708;2022-12-29T11:49:22;5.53;;;2.60;;
46339;SDS011;47273;49.274;8.708;2022-12-29T11:51:50;5.40;;;2.28;;
46339;SDS011;47273;49.274;8.708;2022-12-29T11:54:27;6.38;;;2.50;;
46339;SDS011;47273;49.274;8.708;2022-12-29T11:56:56;6.28;;;2.53;;
46339;SDS011;47273;49.274;8.708;2022-12-29T11:59:37;4.35;;;2.60;;
46339;SDS011;47273;49.274;8.708;2022-12-29T12:05:11;6.65;;;2.65;;
46339;SDS011;47273;49.274;8.708;2022-12-29T12:08:02;4.72;;;2.80;;
46339;SDS011;47273;49.274;8.708;2022-12-29T12:10:46;4.95;;;2.78;;
46339;SDS011;47273;49.274;8.708;2022-12-29T12:18:41;8.05;;;2.85;;
46339;SDS011;47273;49.274;8.708;2022-12-29T12:21:18;4.78;;;2.75;;
46339;SDS011;47273;49.274;8.708;2022-12-29T12:26:22;3.60;;;1.70;;
46339;SDS011;47273;49.274;8.708;2022-12-29T12:31:33;5.90;;;2.13;;
46339;SDS011;47273;49.274;8.708;2022-12-29T12:34:16;3.83;;;1.95;;
46339;SDS011;47273;49.274;8.708;2022-12-29T12:46:07;4.57;;;2.25;;
46339;SDS011;47273;49.274;8.708;2022-12-29T12:48:28;4.20;;;2.00;;
46339;SDS011;47273;49.274;8.708;2022-12-29T12:56:47;5.13;;;1.83;;
46339;SDS011;47273;49.274;8.708;2022-12-29T12:59:35;5.18;;;2.08;;
46339;SDS011;47273;49.274;8.708;2022-12-29T13:15:45;4.43;;;2.17;;
46339;SDS011;47273;49.274;8.708;2022-12-29T13:21:02;4.60;;;1.90;;
46339;SDS011;47273;49.274;8.708;2022-12-29T13:26:21;6.35;;;1.90;;
46339;SDS011;47273;49.274;8.708;2022-12-29T13:37:08;3.05;;;1.65;;
46339;SDS011;47273;49.274;8.708;2022-12-29T13:39:41;2.45;;;1.45;;
46339;SDS011;47273;49.274;8.708;2022-12-29T13:42:13;2.92;;;1.67;;
46339;SDS011;47273;49.274;8.708;2022-12-29T13:44:43;3.97;;;2.10;;
46339;SDS011;47273;49.274;8.708;2022-12-29T13:47:46;3.95;;;1.70;;
46339;SDS011;47273;49.274;8.708;2022-12-29T13:50:21;2.38;;;1.60;;
46339;SDS011;47273;49.274;8.708;2022-12-29T13:52:53;2.58;;;1.85;;
46339;SDS011;47273;49.274;8.708;2022-12-29T13:55:29;9.23;;;1.95;;
46339;SDS011;47273;49.274;8.708;2022-12-29T14:00:48;4.32;;;2.17;;
46339;SDS011;47273;49.274;8.708;2022-12-29T14:03:24;3.83;;;1.95;;
46339;SDS011;47273;49.274;8.708;2022-12-29T14:06:27;3.83;;;1.85;;
46339;SDS011;47273;49.274;8.708;2022-12-29T14:09:04;3.25;;;1.65;;
46339;SDS011;47273;49.274;8.708;2022-12-29T14:11:40;4.10;;;2.58;;
46339;SDS011;47273;49.274;8.708;2022-12-29T14:14:25;3.00;;;1.80;;
46339;SDS011;47273;49.274;8.708;2022-12-29T14:16:54;4.07;;;2.17;;
46339;SDS011;47273;49.274;8.708;2022-12-29T14:19:35;3.22;;;1.70;;
46339;SDS011;47273;49.274;8.708;2022-12-29T14:22:06;3.33;;;1.73;;
46339;SDS011;47273;49.274;8.708;2022-12-29T14:32:34;4.68;;;1.50;;
46339;SDS011;47273;49.274;8.708;2022-12-29T14:34:49;6.28;;;1.77;;
46339;SDS011;47273;49.274;8.708;2022-12-29T14:40:02;5.20;;;1.75;;
46339;SDS011;47273;49.274;8.708;2022-12-29T14:42:48;4.00;;;1.83;;
46339;SDS011;47273;49.274;8.708;2022-12-29T14:47:50;3.10;;;1.90;;
46339;SDS011;47273;49.274;8.708;2022-12-29T14:53:04;4.75;;;1.52;;
46339;SDS011;47273;49.274;8.708;2022-12-29T14:55:47;2.78;;;1.50;;
46339;SDS011;47273;49.274;8.708;2022-12-29T14:58:27;2.65;;;1.40;;
46339;SDS011;47273;49.274;8.708;2022-12-29T15:00:58;6.60;;;2.67;;
46339;SDS011;47273;49.274;8.708;2022-12-29T15:08:35;5.50;;;2.35;;
46339;SDS011;47273;49.274;8.708;2022-12-29T15:11:14;6.30;;;2.58;;
46339;SDS011;47273;49.274;8.708;2022-12-29T15:13:43;3.85;;;2.10;;
46339;SDS011;47273;49.274;8.708;2022-12-29T15:19:00;5.60;;;2.60;;
46339;SDS011;47273;49.274;8.708;2022-12-29T15:21:27;7.15;;;2.75;;
46339;SDS011;47273;49.274;8.708;2022-12-29T15:23:55;7.15;;;2.58;;
46339;SDS011;47273;49.274;8.708;2022-12-29T15:26:21;6.30;;;2.30;;
46339;SDS011;47273;49.274;8.708;2022-12-29T15:28:51;5.85;;;2.20;;
46339;SDS011;47273;49.274;8.708;2022-12-29T15:33:50;5.00;;;2.17;;
46339;SDS011;47273;49.274;8.708;2022-12-29T15:36:27;4.78;;;2.13;;
46339;SDS011;47273;49.274;8.708;2022-12-29T15:39:17;4.45;;;2.05;;
46339;SDS011;47273;49.274;8.708;2022-12-29T15:41:56;6.63;;;3.15;;
46339;SDS011;47273;49.274;8.708;2022-12-29T15:44:38;9.07;;;3.83;;
46339;SDS011;47273;49.274;8.708;2022-12-29T15:47:11;6.97;;;3.10;;
46339;SDS011;47273;49.274;8.708;2022-12-29T15:49:50;6.20;;;3.03;;
46339;SDS011;47273;49.274;8.708;2022-12-29T15:52:23;11.02;;;3.85;;
46339;SDS011;47273;49.274;8.708;2022-12-29T15:54:50;7.38;;;3.53;;
46339;SDS011;47273;49.274;8.708;2022-12-29T15:57:25;11.52;;;5.13;;
46339;SDS011;47273;49.274;8.708;2022-12-29T15:59:53;10.93;;;3.70;;
46339;SDS011;47273;49.274;8.708;2022-12-29T16:02:20;10.63;;;4.82;;
46339;SDS011;47273;49.274;8.708;2022-12-29T16:04:48;9.68;;;3.75;;
46339;SDS011;47273;49.274;8.708;2022-12-29T16:07:27;6.30;;;3.60;;
46339;SDS011;47273;49.274;8.708;2022-12-29T16:10:00;7.50;;;3.45;;
46339;SDS011;47273;49.274;8.708;2022-12-29T16:12:32;5.70;;;2.90;;
46339;SDS011;47273;49.274;8.708;2022-12-29T16:15:00;8.15;;;3.30;;
46339;SDS011;47273;49.274;8.708;2022-12-29T16:17:32;6.97;;;3.17;;
46339;SDS011;47273;49.274;8.708;2022-12-29T16:20:15;7.03;;;3.00;;
46339;SDS011;47273;49.274;8.708;2022-12-29T16:22:48;8.02;;;3.22;;
46339;SDS011;47273;49.274;8.708;2022-12-29T16:25:22;6.90;;;2.72;;
46339;SDS011;47273;49.274;8.708;2022-12-29T16:27:59;7.82;;;2.95;;
46339;SDS011;47273;49.274;8.708;2022-12-29T16:32:53;6.38;;;2.60;;
46339;SDS011;47273;49.274;8.708;2022-12-29T16:35:22;7.40;;;3.13;;
46339;SDS011;47273;49.274;8.708;2022-12-29T16:37:48;8.00;;;3.03;;
46339;SDS011;47273;49.274;8.708;2022-12-29T16:40:33;6.63;;;2.93;;
46339;SDS011;47273;49.274;8.708;2022-12-29T16:43:18;7.38;;;2.67;;
46339;SDS011;47273;49.274;8.708;2022-12-29T16:48:28;6.38;;;2.83;;
46339;SDS011;47273;49.274;8.708;2022-12-29T16:53:41;6.05;;;2.58;;
46339;SDS011;47273;49.274;8.708;2022-12-29T16:56:14;4.20;;;2.20;;
46339;SDS011;47273;49.274;8.708;2022-12-29T16:58:45;7.05;;;3.03;;
46339;SDS011;47273;49.274;8.708;2022-12-29T17:01:26;6.63;;;2.47;;
46339;SDS011;47273;49.274;8.708;2022-12-29T17:03:56;6.47;;;2.42;;
46339;SDS011;47273;49.274;8.708;2022-12-29T17:06:24;8.38;;;2.75;;
46339;SDS011;47273;49.274;8.708;2022-12-29T17:08:50;5.78;;;3.00;;
46339;SDS011;47273;49.274;8.708;2022-12-29T17:14:35;7.72;;;3.20;;
46339;SDS011;47273;49.274;8.708;2022-12-29T17:17:30;5.68;;;2.42;;
46339;SDS011;47273;49.274;8.708;2022-12-29T17:22:46;6.15;;;2.67;;
46339;SDS011;47273;49.274;8.708;2022-12-29T17:25:16;5.68;;;2.88;;
46339;SDS011;47273;49.274;8.708;2022-12-29T17:27:50;6.38;;;3.08;;
46339;SDS011;47273;49.274;8.708;2022-12-29T17:30:26;6.43;;;2.88;;
46339;SDS011;47273;49.274;8.708;2022-12-29T17:33:15;7.05;;;2.83;;
46339;SDS011;47273;49.274;8.708;2022-12-29T17:35:40;6.80;;;2.90;;
46339;SDS011;47273;49.274;8.708;2022-12-29T17:38:40;6.57;;;2.55;;
46339;SDS011;47273;49.274;8.708;2022-12-29T17:41:01;6.03;;;2.33;;
46339;SDS011;47273;49.274;8.708;2022-12-29T17:43:28;6.25;;;2.63;;
46339;SDS011;47273;49.274;8.708;2022-12-29T17:45:58;4.68;;;2.80;;
46339;SDS011;47273;49.274;8.708;2022-12-29T17:48:24;7.07;;;3.40;;
46339;SDS011;47273;49.274;8.708;2022-12-29T17:50:50;6.35;;;3.53;;
46339;SDS011;47273;49.274;8.708;2022-12-29T17:53:21;8.40;;;3.75;;
46339;SDS011;47273;49.274;8.708;2022-12-29T17:55:50;8.38;;;4.22;;
46339;SDS011;47273;49.274;8.708;2022-12-29T17:58:20;10.27;;;5.30;;
46339;SDS011;47273;49.274;8.708;2022-12-29T18:00:50;10.32;;;5.32;;
46339;SDS011;47273;49.274;8.708;2022-12-29T18:03:18;18.98;;;5.88;;
46339;SDS011;47273;49.274;8.708;2022-12-29T18:05:47;11.82;;;4.18;;
46339;SDS011;47273;49.274;8.708;2022-12-29T18:08:14;8.20;;;3.25;;
46339;SDS011;47273;49.274;8.708;2022-12-29T18:10:40;7.47;;;2.88;;
46339;SDS011;47273;49.274;8.708;2022-12-29T18:13:06;4.95;;;2.70;;
46339;SDS011;47273;49.274;8.708;2022-12-29T18:15:49;9.45;;;3.08;;
46339;SDS011;47273;49.274;8.708;2022-12-29T18:18:17;9.55;;;3.30;;
46339;SDS011;47273;49.274;8.708;2022-12-29T18:20:45;12.07;;;5.68;;
46339;SDS011;47273;49.274;8.708;2022-12-29T18:23:17;10.68;;;5.93;;
46339;SDS011;47273;49.274;8.708;2022-12-29T18:25:57;15.55;;;5.22;;
46339;SDS011;47273;49.274;8.708;2022-12-29T18:28:26;11.90;;;5.25;;
46339;SDS011;47273;49.274;8.708;2022-12-29T18:30:52;10.50;;;4.50;;
46339;SDS011;47273;49.274;8.708;2022-12-29T18:33:20;9.48;;;3.90;;
46339;SDS011;47273;49.274;8.708;2022-12-29T18:38:25;9.20;;;4.57;;
46339;SDS011;47273;49.274;8.708;2022-12-29T18:40:51;7.72;;;4.75;;
46339;SDS011;47273;49.274;8.708;2022-12-29T18:43:18;10.73;;;4.78;;
46339;SDS011;47273;49.274;8.708;2022-12-29T18:45:44;8.95;;;6.05;;
46339;SDS011;47273;49.274;8.708;2022-12-29T18:48:11;8.30;;;4.20;;
46339;SDS011;47273;49.274;8.708;2022-12-29T18:50:37;10.45;;;3.47;;
46339;SDS011;47273;49.274;8.708;2022-12-29T18:53:03;10.93;;;3.67;;
46339;SDS011;47273;49.274;8.708;2022-12-29T18:55:28;7.53;;;3.45;;
46339;SDS011;47273;49.274;8.708;2022-12-29T18:57:54;7.35;;;3.22;;
46339;SDS011;47273;49.274;8.708;2022-12-29T19:00:21;9.48;;;2.60;;
46339;SDS011;47273;49.274;8.708;2022-12-29T19:02:47;6.47;;;2.90;;
46339;SDS011;47273;49.274;8.708;2022-12-29T19:05:17;4.85;;;2.60;;
46339;SDS011;47273;49.274;8.708;2022-12-29T19:07:48;6.03;;;2.65;;
46339;SDS011;47273;49.274;8.708;2022-12-29T19:10:15;13.38;;;3.00;;
46339;SDS011;47273;49.274;8.708;2022-12-29T19:12:42;7.95;;;3.10;;
46339;SDS011;47273;49.274;8.708;2022-12-29T19:15:24;6.97;;;2.88;;
46339;SDS011;47273;49.274;8.708;2022-12-29T19:17:55;8.55;;;2.63;;
46339;SDS011;47273;49.274;8.708;2022-12-29T19:23:01;7.13;;;2.67;;
46339;SDS011;47273;49.274;8.708;2022-12-29T19:25:32;4.20;;;1.88;;
46339;SDS011;47273;49.274;8.708;2022-12-29T19:27:58;8.68;;;3.05;;
46339;SDS011;47273;49.274;8.708;2022-12-29T19:30:25;6.90;;;3.10;;
46339;SDS011;47273;49.274;8.708;2022-12-29T19:32:53;12.05;;;3.05;;
46339;SDS011;47273;49.274;8.708;2022-12-29T19:35:20;9.02;;;3.38;;
46339;SDS011;47273;49.274;8.708;2022-12-29T19:37:49;7.80;;;2.97;;
46339;SDS011;47273;49.274;8.708;2022-12-29T19:40:16;6.50;;;2.92;;
46339;SDS011;47273;49.274;8.708;2022-12-29T19:42:47;8.13;;;2.40;;
46339;SDS011;47273;49.274;8.708;2022-12-29T19:45:13;7.28;;;2.85;;
46339;SDS011;47273;49.274;8.708;2022-12-29T19:47:39;5.55;;;2.28;;
46339;SDS011;47273;49.274;8.708;2022-12-29T19:50:08;5.72;;;2.42;;
46339;SDS011;47273;49.274;8.708;2022-12-29T19:52:36;8.43;;;3.63;;
46339;SDS011;47273;49.274;8.708;2022-12-29T19:55:02;6.70;;;2.40;;
46339;SDS011;47273;49.274;8.708;2022-12-29T19:57:28;9.25;;;3.60;;
46339;SDS011;47273;49.274;8.708;2022-12-29T19:59:55;6.72;;;2.78;;
46339;SDS011;47273;49.274;8.708;2022-12-29T20:04:51;8.18;;;2.42;;
46339;SDS011;47273;49.274;8.708;2022-12-29T20:07:18;8.60;;;2.70;;
46339;SDS011;47273;49.274;8.708;2022-12-29T20:09:44;11.05;;;2.25;;
46339;SDS011;47273;49.274;8.708;2022-12-29T20:12:10;4.20;;;2.13;;
46339;SDS011;47273;49.274;8.708;2022-12-29T20:14:37;6.47;;;1.98;;
46339;SDS011;47273;49.274;8.708;2022-12-29T20:17:04;10.90;;;2.50;;
46339;SDS011;47273;49.274;8.708;2022-12-29T20:19:34;11.32;;;2.60;;
46339;SDS011;47273;49.274;8.708;2022-12-29T20:22:01;5.95;;;2.50;;
46339;SDS011;47273;49.274;8.708;2022-12-29T20:24:28;8.68;;;2.78;;
46339;SDS011;47273;49.274;8.708;2022-12-29T20:26:54;8.57;;;2.42;;
46339;SDS011;47273;49.274;8.708;2022-12-29T20:29:20;8.02;;;2.60;;
46339;SDS011;47273;49.274;8.708;2022-12-29T20:32:04;9.25;;;2.42;;
46339;SDS011;47273;49.274;8.708;2022-12-29T20:34:46;5.43;;;2.58;;
46339;SDS011;47273;49.274;8.708;2022-12-29T20:37:12;6.47;;;2.47;;
46339;SDS011;47273;49.274;8.708;2022-12-29T20:39:39;8.38;;;2.97;;
46339;SDS011;47273;49.274;8.708;2022-12-29T20:42:06;9.00;;;2.75;;
46339;SDS011;47273;49.274;8.708;2022-12-29T20:44:41;4.45;;;2.17;;
46339;SDS011;47273;49.274;8.708;2022-12-29T20:47:48;3.83;;;1.70;;
46339;SDS011;47273;49.274;8.708;2022-12-29T20:50:17;8.88;;;2.20;;
46339;SDS011;47273;49.274;8.708;2022-12-29T20:52:48;6.43;;;1.67;;
46339;SDS011;47273;49.274;8.708;2022-12-29T20:58:10;5.72;;;2.33;;
46339;SDS011;47273;49.274;8.708;2022-12-29T21:00:36;5.10;;;2.00;;
46339;SDS011;47273;49.274;8.708;2022-12-29T21:03:02;6.28;;;1.73;;
46339;SDS011;47273;49.274;8.708;2022-12-29T21:05:48;3.38;;;1.73;;
46339;SDS011;47273;49.274;8.708;2022-12-29T21:08:17;3.45;;;1.80;;
46339;SDS011;47273;49.274;8.708;2022-12-29T21:10:45;5.05;;;2.20;;
46339;SDS011;47273;49.274;8.708;2022-12-29T21:13:11;7.65;;;2.40;;
46339;SDS011;47273;49.274;8.708;2022-12-29T21:15:37;7.40;;;2.00;;
46339;SDS011;47273;49.274;8.708;2022-12-29T21:18:03;6.40;;;2.35;;
46339;SDS011;47273;49.274;8.708;2022-12-29T21:20:28;2.20;;;1.42;;
46339;SDS011;47273;49.274;8.708;2022-12-29T21:22:55;6.13;;;2.38;;
46339;SDS011;47273;49.274;8.708;2022-12-29T21:25:27;6.15;;;1.73;;
46339;SDS011;47273;49.274;8.708;2022-12-29T21:28:03;6.68;;;1.88;;
46339;SDS011;47273;49.274;8.708;2022-12-29T21:47:37;6.47;;;2.13;;
46339;SDS011;47273;49.274;8.708;2022-12-29T21:50:21;11.75;;;2.30;;
46339;SDS011;47273;49.274;8.708;2022-12-29T21:52:47;4.88;;;2.33;;
46339;SDS011;47273;49.274;8.708;2022-12-29T21:55:12;2.67;;;1.77;;
46339;SDS011;47273;49.274;8.708;2022-12-29T21:57:38;6.80;;;2.20;;
46339;SDS011;47273;49.274;8.708;2022-12-29T22:00:22;5.53;;;1.70;;
46339;SDS011;47273;49.274;8.708;2022-12-29T22:03:06;4.88;;;1.77;;
46339;SDS011;47273;49.274;8.708;2022-12-29T22:09:12;7.13;;;2.00;;
46339;SDS011;47273;49.274;8.708;2022-12-29T22:11:58;7.68;;;2.47;;
46339;SDS011;47273;49.274;8.708;2022-12-29T22:17:09;4.68;;;1.75;;
46339;SDS011;47273;49.274;8.708;2022-12-29T22:19:35;4.30;;;1.67;;
46339;SDS011;47273;49.274;8.708;2022-12-29T22:22:00;5.75;;;1.95;;
46339;SDS011;47273;49.274;8.708;2022-12-29T22:24:26;6.10;;;1.63;;
46339;SDS011;47273;49.274;8.708;2022-12-29T22:26:54;5.65;;;1.58;;